createdAt,value
2018-10-17T00:00:17.405Z,15.00
2018-10-17T00:02:45.542Z,15.13
2018-10-17T00:05:13.836Z,13.73
2018-10-17T00:07:41.919Z,16.20
2018-10-17T00:10:10.782Z,14.13
2018-10-17T00:12:39.670Z,18.03
2018-10-17T00:15:08.481Z,18.83
2018-10-17T00:17:36.622Z,16.90
2018-10-17T00:20:05.270Z,16.60
2018-10-17T00:22:33.179Z,15.53
2018-10-17T00:25:01.096Z,17.77
2018-10-17T00:27:29.024Z,17.73
2018-10-17T00:29:57.182Z,18.80
2018-10-17T00:32:25.368Z,14.23
2018-10-17T00:34:53.832Z,15.50
2018-10-17T00:37:21.933Z,17.17
2018-10-17T00:39:50.103Z,19.47
2018-10-17T00:42:18.242Z,19.97
2018-10-17T00:44:46.201Z,16.20
2018-10-17T00:47:14.437Z,16.17
2018-10-17T00:49:42.518Z,16.93
2018-10-17T00:52:10.449Z,22.83
2018-10-17T00:54:38.618Z,17.87
2018-10-17T00:57:06.805Z,16.23
2018-10-17T00:59:34.941Z,19.40
2018-10-17T01:02:03.138Z,17.70
2018-10-17T01:04:31.043Z,22.60
2018-10-17T01:06:59.225Z,15.10
2018-10-17T01:09:27.354Z,17.63
2018-10-17T01:11:55.497Z,16.67
2018-10-17T01:14:23.437Z,16.23
2018-10-17T01:16:51.404Z,15.97
2018-10-17T01:19:19.557Z,15.43
2018-10-17T01:21:55.205Z,14.37
2018-10-17T01:24:23.143Z,15.07
2018-10-17T01:26:51.097Z,15.67
2018-10-17T01:29:19.262Z,15.27
2018-10-17T01:31:47.533Z,16.27
2018-10-17T01:34:15.755Z,20.07
2018-10-17T01:36:43.897Z,17.63
2018-10-17T01:39:12.066Z,16.47
2018-10-17T01:41:40.285Z,19.13
2018-10-17T01:44:08.875Z,21.63
2018-10-17T01:46:37.118Z,21.47
2018-10-17T01:49:05.167Z,20.43
2018-10-17T01:51:33.104Z,18.80
2018-10-17T01:54:01.005Z,19.33
2018-10-17T01:56:29.178Z,21.23
2018-10-17T01:58:57.138Z,15.97
2018-10-17T02:01:25.291Z,16.13
2018-10-17T02:03:53.442Z,19.57
2018-10-17T02:06:21.621Z,17.33
2018-10-17T02:08:49.825Z,18.77
2018-10-17T02:11:18.029Z,16.03
2018-10-17T02:13:45.920Z,15.73
2018-10-17T02:16:13.833Z,21.80
2018-10-17T02:18:41.983Z,18.93
2018-10-17T02:21:10.182Z,15.87
2018-10-17T02:23:38.378Z,15.83
2018-10-17T02:26:06.533Z,16.73
2018-10-17T02:28:34.671Z,19.17
2018-10-17T02:31:02.842Z,17.37
2018-10-17T02:33:30.942Z,16.73
2018-10-17T02:35:59.091Z,16.97
2018-10-17T02:38:26.994Z,18.53
2018-10-17T02:40:54.956Z,14.70
2018-10-17T02:43:23.058Z,16.93
2018-10-17T02:45:51.005Z,15.57
2018-10-17T02:48:18.920Z,16.67
2018-10-17T02:50:46.841Z,19.70
2018-10-17T02:53:14.798Z,19.93
2018-10-17T02:55:42.901Z,16.00
2018-10-17T02:58:11.037Z,18.43
2018-10-17T03:00:39.022Z,17.60
2018-10-17T03:03:07.198Z,17.47
2018-10-17T03:05:35.406Z,23.07
2018-10-17T03:08:03.547Z,25.63
2018-10-17T03:10:31.705Z,18.57
2018-10-17T03:13:00.366Z,23.93
2018-10-17T03:15:35.221Z,19.73
2018-10-17T03:18:03.170Z,17.20
2018-10-17T03:20:31.083Z,15.83
2018-10-17T03:22:59.001Z,17.70
2018-10-17T03:25:26.923Z,17.50
2018-10-17T03:27:54.916Z,16.73
2018-10-17T03:30:22.841Z,22.37
2018-10-17T03:32:50.987Z,17.13
2018-10-17T03:35:19.214Z,16.00
2018-10-17T03:37:47.331Z,21.83
2018-10-17T03:40:15.504Z,16.67
2018-10-17T03:42:43.649Z,17.33
2018-10-17T03:45:11.845Z,18.73
2018-10-17T03:47:39.998Z,17.83
2018-10-17T03:50:08.174Z,15.97
2018-10-17T03:52:36.397Z,16.83
2018-10-17T03:55:04.745Z,19.10
2018-10-17T03:57:32.645Z,18.57
2018-10-17T04:00:00.803Z,18.00
2018-10-17T04:02:28.933Z,21.70
2018-10-17T04:04:57.140Z,19.90
2018-10-17T04:07:24.994Z,18.30
2018-10-17T04:09:53.141Z,16.47
2018-10-17T04:12:21.302Z,16.67
2018-10-17T04:14:49.244Z,17.27
2018-10-17T04:17:17.312Z,21.80
2018-10-17T04:19:45.146Z,17.07
2018-10-17T04:22:13.245Z,19.53
2018-10-17T04:24:41.190Z,18.27
2018-10-17T04:27:09.125Z,19.83
2018-10-17T04:29:37.423Z,19.27
2018-10-17T04:32:05.670Z,18.47
2018-10-17T04:34:33.870Z,19.17
2018-10-17T04:37:02.158Z,24.60
2018-10-17T04:39:30.026Z,19.47
2018-10-17T04:41:58.178Z,21.80
2018-10-17T04:44:26.138Z,23.43
2018-10-17T04:46:54.309Z,20.37
2018-10-17T04:49:22.512Z,19.77
2018-10-17T04:51:50.670Z,18.60
2018-10-17T04:54:18.627Z,19.13
2018-10-17T04:56:46.810Z,24.00
2018-10-17T04:59:14.823Z,23.47
2018-10-17T05:01:42.898Z,20.63
2018-10-17T05:04:11.033Z,20.03
2018-10-17T05:06:39.041Z,18.67
2018-10-17T05:09:09.021Z,20.93
2018-10-17T05:11:37.486Z,18.27
2018-10-17T05:14:05.656Z,18.47
2018-10-17T05:16:33.831Z,22.57
2018-10-17T05:19:02.090Z,17.23
2018-10-17T05:21:30.161Z,18.30
2018-10-17T05:23:58.325Z,21.67
2018-10-17T05:26:26.494Z,22.60
2018-10-17T05:28:54.479Z,16.53
2018-10-17T05:31:22.410Z,16.93
2018-10-17T05:33:50.351Z,18.80
2018-10-17T05:36:18.542Z,18.50
2018-10-17T05:38:46.691Z,20.63
2018-10-17T05:41:15.026Z,17.27
2018-10-17T05:43:43.121Z,19.17
2018-10-17T05:46:11.052Z,18.27
2018-10-17T05:48:38.996Z,20.87
2018-10-17T05:51:06.917Z,19.23
2018-10-17T05:53:35.005Z,20.93
2018-10-17T05:56:03.012Z,20.20
2018-10-17T05:58:30.965Z,19.53
2018-10-17T06:00:59.185Z,22.47
2018-10-17T06:03:27.330Z,21.97
2018-10-17T06:05:55.541Z,21.13
2018-10-17T06:08:23.703Z,24.87
2018-10-17T06:10:51.684Z,19.50
2018-10-17T06:13:19.572Z,21.03
2018-10-17T06:15:47.771Z,16.80
2018-10-17T06:18:15.992Z,24.17
2018-10-17T06:20:43.950Z,22.33
2018-10-17T06:23:11.944Z,25.07
2018-10-17T06:25:40.114Z,19.10
2018-10-17T06:28:08.342Z,18.07
2018-10-17T06:30:36.583Z,18.73
2018-10-17T06:33:04.473Z,22.57
2018-10-17T06:35:32.630Z,23.87
2018-10-17T06:38:00.830Z,21.70
2018-10-17T06:40:29.014Z,19.07
2018-10-17T06:42:57.250Z,24.83
2018-10-17T06:45:25.462Z,27.57
2018-10-17T06:47:53.632Z,21.30
2018-10-17T06:50:21.962Z,19.90
2018-10-17T06:52:49.946Z,18.67
2018-10-17T06:55:18.551Z,19.90
2018-10-17T06:57:46.765Z,23.97
2018-10-17T07:00:14.696Z,24.07
2018-10-17T07:02:42.885Z,25.20
2018-10-17T07:05:11.494Z,20.13
2018-10-17T07:07:40.121Z,22.03
2018-10-17T07:10:08.328Z,20.37
2018-10-17T07:12:36.518Z,22.83
2018-10-17T07:15:05.937Z,21.53
2018-10-17T07:17:34.062Z,21.27
2018-10-17T07:20:02.274Z,18.90
2018-10-17T07:22:30.427Z,19.27
2018-10-17T07:24:58.859Z,20.30
2018-10-17T07:27:27.095Z,22.00
2018-10-17T07:29:55.377Z,22.47
2018-10-17T07:32:23.514Z,18.73
2018-10-17T07:34:51.706Z,20.10
2018-10-17T07:37:19.616Z,22.03
2018-10-17T07:39:47.965Z,23.90
2018-10-17T07:42:16.151Z,23.53
2018-10-17T07:44:44.118Z,24.57
2018-10-17T07:47:12.282Z,19.30
2018-10-17T07:49:40.302Z,22.90
2018-10-17T07:52:08.539Z,23.27
2018-10-17T07:54:36.462Z,21.93
2018-10-17T07:57:04.979Z,19.13
2018-10-17T07:59:33.292Z,17.43
2018-10-17T08:02:01.496Z,24.33
2018-10-17T08:04:29.745Z,20.83
2018-10-17T08:06:57.712Z,17.47
2018-10-17T08:09:25.952Z,24.63
2018-10-17T08:11:53.875Z,24.93
2018-10-17T08:14:22.083Z,21.63
2018-10-17T08:16:50.022Z,22.13
2018-10-17T08:19:18.254Z,22.53
2018-10-17T08:21:46.184Z,24.13
2018-10-17T08:24:14.521Z,22.13
2018-10-17T08:26:42.422Z,24.07
2018-10-17T08:29:10.658Z,20.10
2018-10-17T08:31:38.620Z,21.27
2018-10-17T08:34:06.903Z,21.90
2018-10-17T08:36:35.290Z,25.03
2018-10-17T08:39:04.802Z,20.73
2018-10-17T08:41:32.740Z,21.80
2018-10-17T08:44:00.913Z,22.27
2018-10-17T08:46:28.853Z,24.17
2018-10-17T08:48:56.818Z,23.13
2018-10-17T08:51:24.766Z,22.43
2018-10-17T08:53:52.962Z,20.33
2018-10-17T08:56:21.178Z,20.80
2018-10-17T08:58:49.117Z,22.23
2018-10-17T09:01:17.306Z,21.47
2018-10-17T09:03:45.485Z,21.20
2018-10-17T09:06:13.724Z,23.13
2018-10-17T09:08:41.629Z,18.93
2018-10-17T09:11:09.822Z,22.37
2018-10-17T09:13:37.801Z,20.13
2018-10-17T09:16:06.126Z,19.27
2018-10-17T09:18:34.247Z,18.63
2018-10-17T09:21:02.905Z,21.47
2018-10-17T09:23:30.636Z,23.00
2018-10-17T09:25:58.614Z,17.03
2018-10-17T09:28:26.566Z,19.33
2018-10-17T09:30:54.775Z,22.77
2018-10-17T09:33:22.953Z,17.10
2018-10-17T09:35:51.143Z,17.57
2018-10-17T09:38:19.414Z,18.70
2018-10-17T09:40:47.386Z,24.53
2018-10-17T09:43:15.649Z,21.67
2018-10-17T09:45:43.606Z,21.80
2018-10-17T09:48:11.901Z,20.47
2018-10-17T09:50:39.757Z,22.07
2018-10-17T09:53:08.004Z,19.83
2018-10-17T09:55:36.187Z,19.90
2018-10-17T09:58:04.397Z,16.07
2018-10-17T10:00:38.038Z,17.37
2018-10-17T10:03:06.067Z,21.30
2018-10-17T10:05:34.069Z,20.13
2018-10-17T10:08:02.317Z,23.03
2018-10-17T10:10:30.473Z,19.50
2018-10-17T10:12:58.505Z,17.20
2018-10-17T10:15:26.681Z,17.83
2018-10-17T10:17:54.621Z,16.07
2018-10-17T10:20:22.793Z,17.27
2018-10-17T10:22:51.169Z,21.30
2018-10-17T10:25:19.158Z,20.13
2018-10-17T10:27:47.105Z,21.43
2018-10-17T10:30:15.313Z,13.90
2018-10-17T10:32:43.505Z,19.77
2018-10-17T10:35:11.709Z,15.40
2018-10-17T10:37:39.648Z,16.13
2018-10-17T10:40:08.014Z,17.00
2018-10-17T10:42:36.176Z,16.60
2018-10-17T10:45:04.901Z,15.63
2018-10-17T10:47:32.738Z,15.33
2018-10-17T10:50:00.995Z,13.37
2018-10-17T10:52:29.039Z,15.90
2018-10-17T10:54:57.015Z,13.30
2018-10-17T10:57:25.195Z,13.00
2018-10-17T10:59:53.393Z,18.17
2018-10-17T11:02:21.670Z,16.00
2018-10-17T11:04:49.743Z,11.83
2018-10-17T11:07:17.895Z,18.07
2018-10-17T11:09:46.085Z,14.43
2018-10-17T11:12:14.286Z,14.50
2018-10-17T11:14:42.385Z,12.43
2018-10-17T11:17:10.445Z,16.57
2018-10-17T11:19:38.578Z,12.90
2018-10-17T11:22:07.013Z,13.43
2018-10-17T11:24:35.130Z,11.80
2018-10-17T11:27:03.175Z,13.27
2018-10-17T11:29:31.286Z,10.40
2018-10-17T11:32:02.465Z,11.80
2018-10-17T11:34:30.478Z,12.50
2018-10-17T11:36:58.679Z,10.50
2018-10-17T11:39:26.931Z,12.10
2018-10-17T11:41:54.871Z,9.70
2018-10-17T11:44:22.829Z,12.60
2018-10-17T11:46:50.822Z,10.17
2018-10-17T11:49:18.741Z,9.70
2018-10-17T11:51:46.732Z,16.43
2018-10-17T11:54:14.785Z,12.30
2018-10-17T11:56:43.199Z,8.87
2018-10-17T11:59:11.506Z,9.40
2018-10-17T12:01:39.704Z,9.10
2018-10-17T12:04:07.811Z,11.90
2018-10-17T12:06:35.921Z,8.87
2018-10-17T12:09:06.120Z,9.53
2018-10-17T12:11:34.239Z,8.70
2018-10-17T12:14:02.416Z,8.70
2018-10-17T12:16:30.364Z,7.83
2018-10-17T12:18:58.354Z,9.53
2018-10-17T12:21:26.287Z,10.13
2018-10-17T12:23:54.192Z,9.47
2018-10-17T12:26:22.366Z,7.27
2018-10-17T12:28:50.594Z,9.47
2018-10-17T12:31:18.659Z,6.80
2018-10-17T12:33:46.838Z,9.10
2018-10-17T12:36:15.051Z,7.70
2018-10-17T12:38:42.992Z,8.80
2018-10-17T12:41:11.345Z,11.37
2018-10-17T12:43:39.182Z,10.63
2018-10-17T12:46:07.330Z,8.03
2018-10-17T12:48:35.282Z,6.00
2018-10-17T12:51:03.215Z,6.90
2018-10-17T12:53:31.233Z,9.97
2018-10-17T12:55:59.166Z,13.30
2018-10-17T12:58:27.358Z,9.47
2018-10-17T13:00:55.331Z,8.33
2018-10-17T13:03:23.627Z,11.90
2018-10-17T13:05:51.930Z,10.13
2018-10-17T13:08:20.176Z,7.60
2018-10-17T13:10:48.355Z,8.43
2018-10-17T13:13:16.674Z,6.60
2018-10-17T13:15:44.524Z,12.03
2018-10-17T13:18:12.770Z,8.97
2018-10-17T13:20:40.732Z,10.37
2018-10-17T13:23:09.032Z,7.13
2018-10-17T13:25:36.949Z,7.00
2018-10-17T13:28:05.175Z,13.23
2018-10-17T13:30:33.386Z,7.07
2018-10-17T13:33:01.380Z,6.87
2018-10-17T13:35:29.618Z,10.60
2018-10-17T13:37:57.840Z,10.50
2018-10-17T13:40:25.776Z,15.40
2018-10-17T13:42:53.974Z,8.73
2018-10-17T13:45:22.152Z,10.83
2018-10-17T13:47:50.185Z,7.53
2018-10-17T13:50:18.130Z,14.50
2018-10-17T13:52:46.076Z,14.97
2018-10-17T13:55:14.408Z,9.23
2018-10-17T13:57:42.626Z,7.30
2018-10-17T14:00:12.616Z,8.77
2018-10-17T14:02:41.105Z,9.30
2018-10-17T14:05:09.024Z,8.30
2018-10-17T14:07:36.993Z,10.57
2018-10-17T14:10:05.529Z,13.70
2018-10-17T14:12:34.142Z,11.43
2018-10-17T14:15:02.328Z,11.17
2018-10-17T14:17:30.501Z,7.83
2018-10-17T14:19:58.707Z,9.47
2018-10-17T14:22:26.910Z,9.77
2018-10-17T14:24:54.849Z,12.10
2018-10-17T14:27:23.025Z,7.60
2018-10-17T14:29:50.947Z,9.17
2018-10-17T14:32:19.221Z,12.90
2018-10-17T14:34:47.430Z,11.97
2018-10-17T14:37:15.388Z,8.67
2018-10-17T14:39:43.353Z,9.83
2018-10-17T14:42:11.548Z,8.10
2018-10-17T14:44:39.723Z,10.40
2018-10-17T14:47:07.628Z,7.57
2018-10-17T14:49:35.834Z,7.50
2018-10-17T14:52:04.036Z,8.80
2018-10-17T14:54:32.278Z,8.93
2018-10-17T14:57:00.528Z,9.27
2018-10-17T14:59:28.670Z,8.10
2018-10-17T15:01:56.837Z,11.60
2018-10-17T15:04:24.994Z,8.40
2018-10-17T15:06:52.965Z,9.17
2018-10-17T15:09:21.355Z,9.87
2018-10-17T15:11:49.359Z,10.30
2018-10-17T15:14:17.437Z,14.33
2018-10-17T15:16:45.482Z,10.60
2018-10-17T15:19:13.619Z,7.00
2018-10-17T15:21:41.537Z,7.87
2018-10-17T15:24:09.830Z,13.60
2018-10-17T15:26:37.965Z,8.77
2018-10-17T15:29:06.154Z,7.83
2018-10-17T15:31:34.447Z,8.53
2018-10-17T15:34:02.852Z,9.13
2018-10-17T15:36:30.999Z,10.00
2018-10-17T15:38:59.269Z,8.43
2018-10-17T15:41:27.423Z,8.33
2018-10-17T15:43:55.618Z,9.20
2018-10-17T15:46:23.606Z,11.07
2018-10-17T15:48:51.763Z,8.87
2018-10-17T15:51:20.015Z,8.67
2018-10-17T15:53:47.970Z,9.93
2018-10-17T15:56:16.187Z,11.63
2018-10-17T15:58:44.134Z,7.67
2018-10-17T16:01:12.272Z,8.43
2018-10-17T16:03:40.302Z,11.00
2018-10-17T16:06:08.524Z,13.23
2018-10-17T16:08:36.693Z,13.23
2018-10-17T16:11:05.043Z,7.43
2018-10-17T16:13:33.334Z,9.17
2018-10-17T16:16:01.501Z,11.17
2018-10-17T16:18:29.698Z,12.20
2018-10-17T16:20:57.619Z,11.33
2018-10-17T16:23:25.595Z,11.20
2018-10-17T16:25:53.851Z,10.23
2018-10-17T16:28:21.738Z,11.53
2018-10-17T16:30:50.095Z,11.33
2018-10-17T16:33:18.202Z,11.00
2018-10-17T16:35:46.442Z,13.47
2018-10-17T16:38:14.762Z,13.10
2018-10-17T16:40:42.911Z,14.17
2018-10-17T16:43:11.056Z,13.67
2018-10-17T16:45:39.018Z,12.87
2018-10-17T16:48:07.062Z,18.93
2018-10-17T16:50:35.017Z,15.53
2018-10-17T16:53:02.853Z,14.97
2018-10-17T16:55:31.037Z,14.77
2018-10-17T16:57:59.307Z,14.03
2018-10-17T17:00:27.455Z,15.57
2018-10-17T17:02:55.685Z,20.87
2018-10-17T17:05:23.726Z,17.43
2018-10-17T17:07:52.050Z,16.70
2018-10-17T17:10:20.241Z,17.60
2018-10-17T17:12:48.158Z,11.63
2018-10-17T17:15:16.444Z,16.30
2018-10-17T17:17:44.307Z,15.27
2018-10-17T17:20:12.683Z,17.50
2018-10-17T17:22:41.390Z,10.87
2018-10-17T17:25:09.634Z,12.07
2018-10-17T17:27:37.976Z,20.93
2018-10-17T17:30:11.966Z,16.70
2018-10-17T17:32:40.285Z,13.17
2018-10-17T17:35:08.457Z,18.80
2018-10-17T17:37:36.429Z,15.93
2018-10-17T17:40:05.567Z,16.03
2018-10-17T17:42:33.506Z,14.80
2018-10-17T17:45:01.665Z,22.10
2018-10-17T17:47:29.898Z,21.43
2018-10-17T17:49:57.859Z,21.83
2018-10-17T17:52:26.151Z,20.73
2018-10-17T17:54:54.249Z,27.83
2018-10-17T17:57:22.427Z,19.60
2018-10-17T17:59:50.364Z,14.83
2018-10-17T18:02:18.596Z,13.90
2018-10-17T18:04:46.770Z,13.90
2018-10-17T18:07:14.929Z,12.50
2018-10-17T18:09:43.097Z,13.27
2018-10-17T18:12:11.362Z,13.50
2018-10-17T18:14:39.290Z,18.27
2018-10-17T18:17:07.233Z,20.17
2018-10-17T18:19:35.149Z,15.27
2018-10-17T18:22:03.149Z,20.37
2018-10-17T18:24:31.004Z,15.20
2018-10-17T18:26:58.949Z,13.37
2018-10-17T18:29:27.154Z,22.13
2018-10-17T18:31:55.754Z,17.87
2018-10-17T18:34:23.981Z,15.37
2018-10-17T18:36:52.148Z,18.70
2018-10-17T18:39:27.193Z,14.47
2018-10-17T18:41:55.517Z,17.87
2018-10-17T18:44:23.790Z,14.57
2018-10-17T18:46:51.954Z,17.87
2018-10-17T18:49:20.127Z,19.73
2018-10-17T18:51:48.075Z,17.07
2018-10-17T18:54:16.014Z,18.70
2018-10-17T18:56:44.161Z,16.73
2018-10-17T18:59:12.356Z,17.17
2018-10-17T19:01:40.735Z,17.00
2018-10-17T19:04:08.819Z,22.07
2018-10-17T19:06:36.989Z,20.63
2018-10-17T19:09:08.791Z,23.67
2018-10-17T19:11:36.904Z,24.97
2018-10-17T19:14:05.270Z,27.13
2018-10-17T19:16:33.469Z,19.90
2018-10-17T19:19:01.681Z,18.17
2018-10-17T19:21:29.890Z,19.40
2018-10-17T19:23:57.808Z,19.43
2018-10-17T19:26:25.966Z,24.10
2018-10-17T19:28:54.246Z,21.00
2018-10-17T19:31:22.454Z,21.37
2018-10-17T19:33:50.688Z,22.20
2018-10-17T19:36:18.866Z,20.90
2018-10-17T19:38:47.222Z,18.77
2018-10-17T19:41:15.382Z,27.47
2018-10-17T19:43:43.568Z,20.80
2018-10-17T19:46:11.539Z,18.20
2018-10-17T19:48:39.727Z,28.93
2018-10-17T19:51:07.920Z,19.27
2018-10-17T19:53:36.084Z,22.57
2018-10-17T19:56:04.544Z,21.50
2018-10-17T19:58:32.769Z,18.43
2018-10-17T20:01:01.187Z,22.10
2018-10-17T20:03:29.545Z,20.10
2018-10-17T20:05:57.777Z,19.00
2018-10-17T20:08:26.067Z,20.93
2018-10-17T20:10:54.290Z,23.20
2018-10-17T20:13:22.499Z,20.40
2018-10-17T20:15:50.757Z,20.30
2018-10-17T20:18:18.924Z,15.73
2018-10-17T20:20:46.970Z,24.27
2018-10-17T20:23:14.942Z,17.27
2018-10-17T20:25:43.123Z,19.53
2018-10-17T20:28:11.084Z,20.00
2018-10-17T20:30:39.245Z,19.37
2018-10-17T20:33:07.221Z,21.20
2018-10-17T20:35:35.411Z,16.30
2018-10-17T20:38:03.645Z,18.07
2018-10-17T20:40:31.945Z,17.87
2018-10-17T20:43:00.399Z,15.23
2018-10-17T20:45:28.565Z,15.30
2018-10-17T20:47:56.776Z,22.33
2018-10-17T20:50:24.693Z,34.27
2018-10-17T20:52:52.946Z,28.30
2018-10-17T20:55:21.440Z,23.67
2018-10-17T20:57:49.544Z,21.13
2018-10-17T21:00:17.850Z,22.20
2018-10-17T21:05:27.054Z,19.40
2018-10-17T21:07:55.278Z,22.97
2018-10-17T21:10:23.468Z,18.17
2018-10-17T21:12:51.714Z,22.70
2018-10-17T21:15:19.907Z,16.47
2018-10-17T21:17:48.162Z,17.47
2018-10-17T21:20:16.161Z,21.17
2018-10-17T21:22:44.101Z,19.70
2018-10-17T21:25:12.043Z,20.30
2018-10-17T21:27:40.342Z,20.23
2018-10-17T21:30:09.246Z,20.53
2018-10-17T21:32:37.208Z,17.27
2018-10-17T21:35:06.127Z,25.17
2018-10-17T21:37:34.389Z,20.50
2018-10-17T21:40:02.301Z,24.47
2018-10-17T21:42:30.510Z,19.47
2018-10-17T21:44:59.027Z,18.20
2018-10-17T21:47:27.186Z,29.23
2018-10-17T21:49:55.244Z,20.73
2018-10-17T21:52:23.177Z,16.93
2018-10-17T21:54:51.161Z,27.00
2018-10-17T21:57:19.378Z,18.23
2018-10-17T21:59:47.620Z,19.97
2018-10-17T22:02:15.841Z,15.03
2018-10-17T22:04:43.977Z,20.20
2018-10-17T22:07:12.157Z,15.53
2018-10-17T22:09:40.335Z,17.07
2018-10-17T22:12:08.502Z,17.20
2018-10-17T22:14:36.783Z,17.57
2018-10-17T22:17:06.705Z,19.37
2018-10-17T22:19:35.913Z,16.37
2018-10-17T22:22:03.956Z,21.33
2018-10-17T22:24:32.173Z,17.27
2018-10-17T22:27:00.354Z,19.27
2018-10-17T22:29:28.582Z,16.77
2018-10-17T22:31:56.769Z,18.83
2018-10-17T22:34:25.038Z,15.90
2018-10-17T22:36:53.245Z,17.47
2018-10-17T22:39:21.490Z,17.13
2018-10-17T22:41:49.647Z,17.10
2018-10-17T22:44:17.838Z,21.93
2018-10-17T22:46:46.017Z,23.07
2018-10-17T22:49:14.202Z,18.37
2018-10-17T22:51:42.373Z,21.50
2018-10-17T22:54:10.547Z,21.47
2018-10-17T22:56:39.374Z,21.10
2018-10-17T22:59:07.394Z,19.97
2018-10-17T23:01:36.132Z,18.87
2018-10-17T23:04:04.575Z,16.07
2018-10-17T23:06:32.746Z,16.87
2018-10-17T23:09:00.757Z,17.83
2018-10-17T23:11:28.957Z,18.60
2018-10-17T23:13:57.204Z,21.07
2018-10-17T23:16:25.134Z,18.53
2018-10-17T23:18:53.057Z,20.27
2018-10-17T23:21:20.989Z,17.20
2018-10-17T23:23:49.131Z,21.57
2018-10-17T23:26:17.143Z,19.73
2018-10-17T23:28:45.231Z,18.60
2018-10-17T23:31:13.169Z,20.63
2018-10-17T23:33:41.334Z,18.87
2018-10-17T23:36:09.525Z,19.10
2018-10-17T23:38:37.771Z,20.83
2018-10-17T23:41:06.042Z,18.57
2018-10-17T23:43:34.068Z,19.13
2018-10-17T23:46:02.226Z,19.40
2018-10-17T23:48:30.393Z,18.60
2018-10-17T23:50:58.568Z,23.20
2018-10-17T23:53:26.745Z,21.33
2018-10-17T23:55:54.995Z,18.37
2018-10-17T23:58:22.909Z,22.97
